sensor_id;sensor_type;location;lat;lon;timestamp;temperature;humidity
38480;DHT22;62333;51.980;5.934;2023-02-21T00:01:35;10.70;95.90
38480;DHT22;62333;51.980;5.934;2023-02-21T00:04:19;10.60;95.90
38480;DHT22;62333;51.980;5.934;2023-02-21T00:07:03;10.60;95.90
38480;DHT22;62333;51.980;5.934;2023-02-21T00:09:47;10.60;95.90
38480;DHT22;62333;51.980;5.934;2023-02-21T00:12:31;10.60;95.90
38480;DHT22;62333;51.980;5.934;2023-02-21T00:15:15;10.60;95.90
38480;DHT22;62333;51.980;5.934;2023-02-21T00:18:00;10.60;95.90
38480;DHT22;62333;51.980;5.934;2023-02-21T00:20:44;10.60;96.00
38480;DHT22;62333;51.980;5.934;2023-02-21T00:23:31;10.60;96.00
38480;DHT22;62333;51.980;5.934;2023-02-21T00:26:19;10.60;96.00
38480;DHT22;62333;51.980;5.934;2023-02-21T00:29:05;10.50;96.00
38480;DHT22;62333;51.980;5.934;2023-02-21T00:31:49;10.50;96.00
38480;DHT22;62333;51.980;5.934;2023-02-21T00:34:33;10.50;96.00
38480;DHT22;62333;51.980;5.934;2023-02-21T00:37:17;10.50;96.00
38480;DHT22;62333;51.980;5.934;2023-02-21T00:40:02;10.50;96.00
38480;DHT22;62333;51.980;5.934;2023-02-21T00:42:46;10.60;96.10
38480;DHT22;62333;51.980;5.934;2023-02-21T00:45:30;10.60;96.00
38480;DHT22;62333;51.980;5.934;2023-02-21T00:48:22;10.60;96.00
38480;DHT22;62333;51.980;5.934;2023-02-21T00:51:06;10.60;96.10
38480;DHT22;62333;51.980;5.934;2023-02-21T00:53:50;10.50;96.10
38480;DHT22;62333;51.980;5.934;2023-02-21T00:56:34;10.50;96.10
38480;DHT22;62333;51.980;5.934;2023-02-21T00:59:18;10.50;96.10
38480;DHT22;62333;51.980;5.934;2023-02-21T01:02:03;10.50;96.20
38480;DHT22;62333;51.980;5.934;2023-02-21T01:04:47;10.50;96.20
38480;DHT22;62333;51.980;5.934;2023-02-21T01:07:31;10.40;96.20
38480;DHT22;62333;51.980;5.934;2023-02-21T01:10:15;10.40;96.20
38480;DHT22;62333;51.980;5.934;2023-02-21T01:13:00;10.40;96.20
38480;DHT22;62333;51.980;5.934;2023-02-21T01:15:44;10.40;96.30
38480;DHT22;62333;51.980;5.934;2023-02-21T01:18:28;10.50;96.30
38480;DHT22;62333;51.980;5.934;2023-02-21T01:21:14;10.50;96.30
38480;DHT22;62333;51.980;5.934;2023-02-21T01:23:58;10.50;96.30
38480;DHT22;62333;51.980;5.934;2023-02-21T01:26:43;10.50;96.30
38480;DHT22;62333;51.980;5.934;2023-02-21T01:29:27;10.50;96.30
38480;DHT22;62333;51.980;5.934;2023-02-21T01:32:11;10.50;96.30
38480;DHT22;62333;51.980;5.934;2023-02-21T01:34:55;10.50;96.30
38480;DHT22;62333;51.980;5.934;2023-02-21T01:37:40;10.50;96.30
38480;DHT22;62333;51.980;5.934;2023-02-21T01:40:25;10.50;96.30
38480;DHT22;62333;51.980;5.934;2023-02-21T01:43:21;10.50;96.30
38480;DHT22;62333;51.980;5.934;2023-02-21T01:46:11;10.50;96.20
38480;DHT22;62333;51.980;5.934;2023-02-21T01:48:57;10.50;96.20
38480;DHT22;62333;51.980;5.934;2023-02-21T01:51:43;10.50;96.20
38480;DHT22;62333;51.980;5.934;2023-02-21T01:54:31;10.50;96.50
38480;DHT22;62333;51.980;5.934;2023-02-21T01:57:17;10.50;96.30
38480;DHT22;62333;51.980;5.934;2023-02-21T02:00:05;10.50;96.30
38480;DHT22;62333;51.980;5.934;2023-02-21T02:03:05;10.50;96.50
38480;DHT22;62333;51.980;5.934;2023-02-21T02:06:01;10.50;96.30
38480;DHT22;62333;51.980;5.934;2023-02-21T02:08:46;10.50;96.30
38480;DHT22;62333;51.980;5.934;2023-02-21T02:48:51;10.40;96.50
38480;DHT22;62333;51.980;5.934;2023-02-21T02:50:51;10.50;96.60
38480;DHT22;62333;51.980;5.934;2023-02-21T02:53:21;10.50;96.70
38480;DHT22;62333;51.980;5.934;2023-02-21T02:55:56;10.50;96.60
38480;DHT22;62333;51.980;5.934;2023-02-21T02:58:26;10.50;96.60
38480;DHT22;62333;51.980;5.934;2023-02-21T03:06:33;10.50;96.60
38480;DHT22;62333;51.980;5.934;2023-02-21T03:09:25;10.50;96.60
38480;DHT22;62333;51.980;5.934;2023-02-21T03:12:10;10.50;96.60
38480;DHT22;62333;51.980;5.934;2023-02-21T03:14:43;10.50;96.60
38480;DHT22;62333;51.980;5.934;2023-02-21T03:17:12;10.50;96.60
38480;DHT22;62333;51.980;5.934;2023-02-21T03:19:41;10.50;96.70
38480;DHT22;62333;51.980;5.934;2023-02-21T03:22:17;10.40;96.60
38480;DHT22;62333;51.980;5.934;2023-02-21T03:24:45;10.40;96.70
38480;DHT22;62333;51.980;5.934;2023-02-21T03:27:12;10.40;96.70
38480;DHT22;62333;51.980;5.934;2023-02-21T03:29:39;10.40;96.70
38480;DHT22;62333;51.980;5.934;2023-02-21T03:32:12;10.40;96.80
38480;DHT22;62333;51.980;5.934;2023-02-21T03:34:41;10.40;96.80
38480;DHT22;62333;51.980;5.934;2023-02-21T03:37:09;10.40;96.80
38480;DHT22;62333;51.980;5.934;2023-02-21T03:39:35;10.40;96.90
38480;DHT22;62333;51.980;5.934;2023-02-21T03:42:01;10.40;96.90
38480;DHT22;62333;51.980;5.934;2023-02-21T03:44:26;10.40;96.90
38480;DHT22;62333;51.980;5.934;2023-02-21T03:46:52;10.40;96.90
38480;DHT22;62333;51.980;5.934;2023-02-21T03:49:18;10.40;96.90
38480;DHT22;62333;51.980;5.934;2023-02-21T03:51:44;10.40;96.90
38480;DHT22;62333;51.980;5.934;2023-02-21T03:54:09;10.40;96.90
38480;DHT22;62333;51.980;5.934;2023-02-21T03:56:35;10.40;96.90
38480;DHT22;62333;51.980;5.934;2023-02-21T03:59:01;10.40;96.90
38480;DHT22;62333;51.980;5.934;2023-02-21T04:01:26;10.40;96.90
38480;DHT22;62333;51.980;5.934;2023-02-21T04:03:52;10.40;96.90
38480;DHT22;62333;51.980;5.934;2023-02-21T04:06:17;10.40;96.90
38480;DHT22;62333;51.980;5.934;2023-02-21T04:08:43;10.40;97.00
38480;DHT22;62333;51.980;5.934;2023-02-21T04:11:09;10.40;96.90
38480;DHT22;62333;51.980;5.934;2023-02-21T04:13:34;10.40;96.90
38480;DHT22;62333;51.980;5.934;2023-02-21T04:16:00;10.40;97.20
38480;DHT22;62333;51.980;5.934;2023-02-21T04:18:26;10.40;96.90
38480;DHT22;62333;51.980;5.934;2023-02-21T04:20:51;10.40;97.00
38480;DHT22;62333;51.980;5.934;2023-02-21T04:23:18;10.40;97.00
38480;DHT22;62333;51.980;5.934;2023-02-21T04:25:44;10.40;97.00
38480;DHT22;62333;51.980;5.934;2023-02-21T04:28:10;10.40;97.00
38480;DHT22;62333;51.980;5.934;2023-02-21T04:30:35;10.40;97.00
38480;DHT22;62333;51.980;5.934;2023-02-21T04:33:02;10.40;97.00
38480;DHT22;62333;51.980;5.934;2023-02-21T04:35:28;10.40;97.00
38480;DHT22;62333;51.980;5.934;2023-02-21T04:37:53;10.40;97.00
38480;DHT22;62333;51.980;5.934;2023-02-21T04:40:19;10.40;97.00
38480;DHT22;62333;51.980;5.934;2023-02-21T04:42:45;10.40;97.00
38480;DHT22;62333;51.980;5.934;2023-02-21T04:45:10;10.40;97.00
38480;DHT22;62333;51.980;5.934;2023-02-21T04:47:36;10.40;97.00
38480;DHT22;62333;51.980;5.934;2023-02-21T04:50:02;10.40;97.10
38480;DHT22;62333;51.980;5.934;2023-02-21T04:52:28;10.40;97.10
38480;DHT22;62333;51.980;5.934;2023-02-21T04:54:54;10.30;97.10
38480;DHT22;62333;51.980;5.934;2023-02-21T04:57:20;10.30;97.10
38480;DHT22;62333;51.980;5.934;2023-02-21T04:59:45;10.40;97.10
38480;DHT22;62333;51.980;5.934;2023-02-21T05:02:11;10.30;97.10
38480;DHT22;62333;51.980;5.934;2023-02-21T05:04:37;10.40;97.10
38480;DHT22;62333;51.980;5.934;2023-02-21T05:07:04;10.40;97.10
38480;DHT22;62333;51.980;5.934;2023-02-21T05:09:30;10.30;97.10
38480;DHT22;62333;51.980;5.934;2023-02-21T05:11:55;10.40;97.10
38480;DHT22;62333;51.980;5.934;2023-02-21T05:14:21;10.40;97.10
38480;DHT22;62333;51.980;5.934;2023-02-21T05:16:47;10.30;97.10
38480;DHT22;62333;51.980;5.934;2023-02-21T05:19:16;10.40;97.10
38480;DHT22;62333;51.980;5.934;2023-02-21T05:21:55;10.40;97.10
38480;DHT22;62333;51.980;5.934;2023-02-21T05:24:21;10.40;97.00
38480;DHT22;62333;51.980;5.934;2023-02-21T05:26:47;10.40;97.00
38480;DHT22;62333;51.980;5.934;2023-02-21T05:29:12;10.40;97.00
38480;DHT22;62333;51.980;5.934;2023-02-21T05:31:38;10.50;97.00
38480;DHT22;62333;51.980;5.934;2023-02-21T05:34:03;10.40;97.00
38480;DHT22;62333;51.980;5.934;2023-02-21T05:36:29;10.50;97.00
38480;DHT22;62333;51.980;5.934;2023-02-21T05:38:55;10.40;97.00
38480;DHT22;62333;51.980;5.934;2023-02-21T05:41:21;10.40;97.00
38480;DHT22;62333;51.980;5.934;2023-02-21T05:43:48;10.40;97.00
38480;DHT22;62333;51.980;5.934;2023-02-21T05:46:33;10.40;97.00
38480;DHT22;62333;51.980;5.934;2023-02-21T05:49:00;10.40;97.00
38480;DHT22;62333;51.980;5.934;2023-02-21T05:51:27;10.40;97.00
38480;DHT22;62333;51.980;5.934;2023-02-21T05:53:53;10.40;97.00
38480;DHT22;62333;51.980;5.934;2023-02-21T05:56:20;10.40;97.00
38480;DHT22;62333;51.980;5.934;2023-02-21T05:58:46;10.40;97.00
38480;DHT22;62333;51.980;5.934;2023-02-21T06:01:12;10.40;97.00
38480;DHT22;62333;51.980;5.934;2023-02-21T06:03:38;10.40;97.00
38480;DHT22;62333;51.980;5.934;2023-02-21T06:06:04;10.40;97.00
38480;DHT22;62333;51.980;5.934;2023-02-21T06:08:30;10.40;97.10
38480;DHT22;62333;51.980;5.934;2023-02-21T06:10:55;10.40;97.10
38480;DHT22;62333;51.980;5.934;2023-02-21T06:13:21;10.40;97.10
38480;DHT22;62333;51.980;5.934;2023-02-21T06:15:47;10.40;97.10
38480;DHT22;62333;51.980;5.934;2023-02-21T06:18:13;10.40;97.10
38480;DHT22;62333;51.980;5.934;2023-02-21T06:20:39;10.40;97.10
38480;DHT22;62333;51.980;5.934;2023-02-21T06:23:05;10.40;97.20
38480;DHT22;62333;51.980;5.934;2023-02-21T06:25:30;10.40;97.10
38480;DHT22;62333;51.980;5.934;2023-02-21T06:27:56;10.40;97.20
38480;DHT22;62333;51.980;5.934;2023-02-21T06:30:22;10.40;97.20
38480;DHT22;62333;51.980;5.934;2023-02-21T06:32:48;10.40;97.20
38480;DHT22;62333;51.980;5.934;2023-02-21T06:35:13;10.40;97.20
38480;DHT22;62333;51.980;5.934;2023-02-21T06:37:39;10.30;97.30
38480;DHT22;62333;51.980;5.934;2023-02-21T06:40:05;10.30;97.30
38480;DHT22;62333;51.980;5.934;2023-02-21T06:42:31;10.30;97.30
38480;DHT22;62333;51.980;5.934;2023-02-21T06:44:57;10.30;97.30
38480;DHT22;62333;51.980;5.934;2023-02-21T06:47:22;10.30;97.40
38480;DHT22;62333;51.980;5.934;2023-02-21T06:49:48;10.30;97.40
38480;DHT22;62333;51.980;5.934;2023-02-21T06:52:14;10.30;97.40
38480;DHT22;62333;51.980;5.934;2023-02-21T06:54:39;10.30;97.40
38480;DHT22;62333;51.980;5.934;2023-02-21T06:57:05;10.30;97.40
38480;DHT22;62333;51.980;5.934;2023-02-21T06:59:31;10.30;97.50
38480;DHT22;62333;51.980;5.934;2023-02-21T07:01:57;10.30;97.50
38480;DHT22;62333;51.980;5.934;2023-02-21T07:04:23;10.30;97.50
38480;DHT22;62333;51.980;5.934;2023-02-21T07:06:50;10.30;97.50
38480;DHT22;62333;51.980;5.934;2023-02-21T07:09:15;10.30;97.50
38480;DHT22;62333;51.980;5.934;2023-02-21T07:11:41;10.30;97.60
38480;DHT22;62333;51.980;5.934;2023-02-21T07:14:07;10.30;97.60
38480;DHT22;62333;51.980;5.934;2023-02-21T07:16:33;10.30;97.60
38480;DHT22;62333;51.980;5.934;2023-02-21T07:18:58;10.30;97.60
38480;DHT22;62333;51.980;5.934;2023-02-21T07:21:25;10.20;97.60
38480;DHT22;62333;51.980;5.934;2023-02-21T07:23:51;10.20;97.60
38480;DHT22;62333;51.980;5.934;2023-02-21T07:26:17;10.30;97.60
38480;DHT22;62333;51.980;5.934;2023-02-21T07:28:43;10.20;97.60
38480;DHT22;62333;51.980;5.934;2023-02-21T07:31:10;10.30;97.70
38480;DHT22;62333;51.980;5.934;2023-02-21T07:33:36;10.30;97.70
38480;DHT22;62333;51.980;5.934;2023-02-21T07:36:01;10.20;97.70
38480;DHT22;62333;51.980;5.934;2023-02-21T07:38:29;10.20;97.70
38480;DHT22;62333;51.980;5.934;2023-02-21T07:40:57;10.30;97.70
38480;DHT22;62333;51.980;5.934;2023-02-21T07:43:24;10.30;97.70
38480;DHT22;62333;51.980;5.934;2023-02-21T07:45:50;10.30;97.70
38480;DHT22;62333;51.980;5.934;2023-02-21T07:48:16;10.30;97.70
38480;DHT22;62333;51.980;5.934;2023-02-21T07:50:42;10.30;97.60
38480;DHT22;62333;51.980;5.934;2023-02-21T07:53:09;10.30;97.60
38480;DHT22;62333;51.980;5.934;2023-02-21T07:55:35;10.30;97.60
38480;DHT22;62333;51.980;5.934;2023-02-21T07:58:01;10.40;97.60
38480;DHT22;62333;51.980;5.934;2023-02-21T08:00:27;10.30;97.60
38480;DHT22;62333;51.980;5.934;2023-02-21T08:02:52;10.40;97.60
38480;DHT22;62333;51.980;5.934;2023-02-21T08:05:19;10.30;97.60
38480;DHT22;62333;51.980;5.934;2023-02-21T08:07:45;10.30;97.60
38480;DHT22;62333;51.980;5.934;2023-02-21T08:10:12;10.30;97.60
38480;DHT22;62333;51.980;5.934;2023-02-21T08:12:39;10.30;97.60
38480;DHT22;62333;51.980;5.934;2023-02-21T08:15:04;10.30;97.60
38480;DHT22;62333;51.980;5.934;2023-02-21T08:17:31;10.30;97.60
38480;DHT22;62333;51.980;5.934;2023-02-21T08:19:56;10.30;97.70
38480;DHT22;62333;51.980;5.934;2023-02-21T08:22:22;10.30;97.70
38480;DHT22;62333;51.980;5.934;2023-02-21T08:24:48;10.30;97.70
38480;DHT22;62333;51.980;5.934;2023-02-21T08:27:14;10.30;97.70
38480;DHT22;62333;51.980;5.934;2023-02-21T08:29:40;10.30;97.70
38480;DHT22;62333;51.980;5.934;2023-02-21T08:32:05;10.30;97.70
38480;DHT22;62333;51.980;5.934;2023-02-21T08:34:31;10.30;97.80
38480;DHT22;62333;51.980;5.934;2023-02-21T08:36:56;10.30;97.80
38480;DHT22;62333;51.980;5.934;2023-02-21T08:39:22;10.30;97.80
38480;DHT22;62333;51.980;5.934;2023-02-21T08:41:48;10.30;97.80
38480;DHT22;62333;51.980;5.934;2023-02-21T08:44:15;10.30;97.80
38480;DHT22;62333;51.980;5.934;2023-02-21T08:46:42;10.30;97.90
38480;DHT22;62333;51.980;5.934;2023-02-21T08:49:08;10.30;97.90
38480;DHT22;62333;51.980;5.934;2023-02-21T08:51:35;10.30;97.90
38480;DHT22;62333;51.980;5.934;2023-02-21T08:54:01;10.30;97.90
38480;DHT22;62333;51.980;5.934;2023-02-21T08:56:28;10.30;97.90
38480;DHT22;62333;51.980;5.934;2023-02-21T08:58:55;10.30;97.90
38480;DHT22;62333;51.980;5.934;2023-02-21T09:01:22;10.30;97.90
38480;DHT22;62333;51.980;5.934;2023-02-21T09:03:47;10.30;97.90
38480;DHT22;62333;51.980;5.934;2023-02-21T09:06:13;10.30;97.90
38480;DHT22;62333;51.980;5.934;2023-02-21T09:08:39;10.30;98.00
38480;DHT22;62333;51.980;5.934;2023-02-21T09:11:06;10.30;98.00
38480;DHT22;62333;51.980;5.934;2023-02-21T09:13:32;10.30;98.00
38480;DHT22;62333;51.980;5.934;2023-02-21T09:15:59;10.30;97.90
38480;DHT22;62333;51.980;5.934;2023-02-21T09:18:26;10.30;97.90
38480;DHT22;62333;51.980;5.934;2023-02-21T09:20:52;10.30;97.90
38480;DHT22;62333;51.980;5.934;2023-02-21T09:23:18;10.30;97.90
38480;DHT22;62333;51.980;5.934;2023-02-21T09:25:45;10.30;97.90
38480;DHT22;62333;51.980;5.934;2023-02-21T09:28:12;10.40;97.90
38480;DHT22;62333;51.980;5.934;2023-02-21T09:30:38;10.30;97.90
38480;DHT22;62333;51.980;5.934;2023-02-21T09:33:03;10.40;97.90
38480;DHT22;62333;51.980;5.934;2023-02-21T09:35:29;10.40;97.90
38480;DHT22;62333;51.980;5.934;2023-02-21T09:37:56;10.40;97.90
38480;DHT22;62333;51.980;5.934;2023-02-21T09:42:58;10.40;98.10
38480;DHT22;62333;51.980;5.934;2023-02-21T09:45:30;10.40;97.80
38480;DHT22;62333;51.980;5.934;2023-02-21T09:48:01;10.40;97.80
38480;DHT22;62333;51.980;5.934;2023-02-21T09:50:32;10.40;97.80
38480;DHT22;62333;51.980;5.934;2023-02-21T09:52:59;10.40;97.80
38480;DHT22;62333;51.980;5.934;2023-02-21T09:57:51;10.40;97.80
38480;DHT22;62333;51.980;5.934;2023-02-21T10:00:20;10.40;98.10
38480;DHT22;62333;51.980;5.934;2023-02-21T10:05:41;10.50;97.80
38480;DHT22;62333;51.980;5.934;2023-02-21T10:13:54;10.50;97.70
38480;DHT22;62333;51.980;5.934;2023-02-21T10:19:30;10.50;97.70
38480;DHT22;62333;51.980;5.934;2023-02-21T10:21:58;10.50;97.70
38480;DHT22;62333;51.980;5.934;2023-02-21T10:24:26;10.60;97.70
38480;DHT22;62333;51.980;5.934;2023-02-21T10:27:06;10.60;97.70
38480;DHT22;62333;51.980;5.934;2023-02-21T10:32:04;10.60;97.60
38480;DHT22;62333;51.980;5.934;2023-02-21T10:34:31;10.60;97.60
38480;DHT22;62333;51.980;5.934;2023-02-21T10:37:10;10.70;97.60
38480;DHT22;62333;51.980;5.934;2023-02-21T10:39:43;10.70;97.60
38480;DHT22;62333;51.980;5.934;2023-02-21T10:42:35;10.70;97.60
38480;DHT22;62333;51.980;5.934;2023-02-21T10:45:03;10.70;97.60
38480;DHT22;62333;51.980;5.934;2023-02-21T10:47:52;10.70;97.50
38480;DHT22;62333;51.980;5.934;2023-02-21T10:53:06;10.70;97.50
38480;DHT22;62333;51.980;5.934;2023-02-21T10:55:32;10.70;97.50
38480;DHT22;62333;51.980;5.934;2023-02-21T10:58:08;10.70;97.50
38480;DHT22;62333;51.980;5.934;2023-02-21T11:00:42;10.70;97.50
38480;DHT22;62333;51.980;5.934;2023-02-21T11:03:22;10.70;97.50
38480;DHT22;62333;51.980;5.934;2023-02-21T11:05:53;10.70;97.50
38480;DHT22;62333;51.980;5.934;2023-02-21T11:08:43;10.70;97.50
38480;DHT22;62333;51.980;5.934;2023-02-21T11:11:09;10.80;97.50
38480;DHT22;62333;51.980;5.934;2023-02-21T11:13:35;10.70;97.40
38480;DHT22;62333;51.980;5.934;2023-02-21T11:16:19;10.70;97.40
38480;DHT22;62333;51.980;5.934;2023-02-21T11:19:03;10.80;97.40
38480;DHT22;62333;51.980;5.934;2023-02-21T11:21:29;10.80;97.70
38480;DHT22;62333;51.980;5.934;2023-02-21T11:23:58;10.80;97.40
38480;DHT22;62333;51.980;5.934;2023-02-21T11:26:28;10.80;97.40
38480;DHT22;62333;51.980;5.934;2023-02-21T11:29:07;10.80;97.40
38480;DHT22;62333;51.980;5.934;2023-02-21T11:31:34;10.80;97.40
38480;DHT22;62333;51.980;5.934;2023-02-21T11:34:05;10.80;97.40
38480;DHT22;62333;51.980;5.934;2023-02-21T11:41:47;10.80;97.40
38480;DHT22;62333;51.980;5.934;2023-02-21T11:44:32;10.80;97.30
38480;DHT22;62333;51.980;5.934;2023-02-21T11:47:13;10.80;97.30
38480;DHT22;62333;51.980;5.934;2023-02-21T11:52:33;10.80;97.30
38480;DHT22;62333;51.980;5.934;2023-02-21T11:55:01;10.80;97.30
38480;DHT22;62333;51.980;5.934;2023-02-21T12:00:54;10.90;97.30
38480;DHT22;62333;51.980;5.934;2023-02-21T12:09:19;10.90;97.30
38480;DHT22;62333;51.980;5.934;2023-02-21T12:14:43;10.80;97.20
38480;DHT22;62333;51.980;5.934;2023-02-21T12:30:30;10.80;97.20
38480;DHT22;62333;51.980;5.934;2023-02-21T12:38:35;10.90;97.20
38480;DHT22;62333;51.980;5.934;2023-02-21T12:44:11;10.80;97.20
38480;DHT22;62333;51.980;5.934;2023-02-21T12:51:46;10.80;97.20
38480;DHT22;62333;51.980;5.934;2023-02-21T12:57:06;10.80;97.20
38480;DHT22;62333;51.980;5.934;2023-02-21T13:03:23;10.80;97.20
38480;DHT22;62333;51.980;5.934;2023-02-21T13:05:19;10.70;97.10
38480;DHT22;62333;51.980;5.934;2023-02-21T13:07:49;10.70;97.10
38480;DHT22;62333;51.980;5.934;2023-02-21T13:10:48;10.70;97.20
38480;DHT22;62333;51.980;5.934;2023-02-21T13:13:20;10.70;97.50
38480;DHT22;62333;51.980;5.934;2023-02-21T13:15:48;10.70;97.20
38480;DHT22;62333;51.980;5.934;2023-02-21T13:18:23;10.70;97.20
38480;DHT22;62333;51.980;5.934;2023-02-21T13:23:43;10.70;97.20
38480;DHT22;62333;51.980;5.934;2023-02-21T13:28:56;10.80;97.20
38480;DHT22;62333;51.980;5.934;2023-02-21T13:31:27;10.80;97.20
38480;DHT22;62333;51.980;5.934;2023-02-21T13:34:02;10.80;97.10
38480;DHT22;62333;51.980;5.934;2023-02-21T13:39:20;10.90;97.10
38480;DHT22;62333;51.980;5.934;2023-02-21T13:41:52;10.90;97.10
38480;DHT22;62333;51.980;5.934;2023-02-21T13:44:30;10.90;97.10
38480;DHT22;62333;51.980;5.934;2023-02-21T13:47:23;11.00;97.10
38480;DHT22;62333;51.980;5.934;2023-02-21T13:49:53;11.00;97.00
38480;DHT22;62333;51.980;5.934;2023-02-21T14:08:30;11.00;97.10
38480;DHT22;62333;51.980;5.934;2023-02-21T14:13:41;10.90;97.00
38480;DHT22;62333;51.980;5.934;2023-02-21T14:18:50;11.00;97.00
38480;DHT22;62333;51.980;5.934;2023-02-21T14:58:26;11.20;96.80
38480;DHT22;62333;51.980;5.934;2023-02-21T15:03:31;11.20;96.80
38480;DHT22;62333;51.980;5.934;2023-02-21T15:06:03;11.20;96.80
38480;DHT22;62333;51.980;5.934;2023-02-21T15:08:45;11.30;96.80
38480;DHT22;62333;51.980;5.934;2023-02-21T15:11:28;11.20;96.80
38480;DHT22;62333;51.980;5.934;2023-02-21T15:14:12;11.20;96.80
38480;DHT22;62333;51.980;5.934;2023-02-21T15:16:43;11.30;96.80
38480;DHT22;62333;51.980;5.934;2023-02-21T15:19:27;11.30;96.80
38480;DHT22;62333;51.980;5.934;2023-02-21T15:22:13;11.30;96.70
38480;DHT22;62333;51.980;5.934;2023-02-21T15:24:39;11.30;96.70
38480;DHT22;62333;51.980;5.934;2023-02-21T15:27:12;11.30;96.70
38480;DHT22;62333;51.980;5.934;2023-02-21T15:29:39;11.30;96.70
38480;DHT22;62333;51.980;5.934;2023-02-21T15:32:06;11.40;96.70
38480;DHT22;62333;51.980;5.934;2023-02-21T15:34:42;11.40;96.60
38480;DHT22;62333;51.980;5.934;2023-02-21T15:37:28;11.40;96.60
38480;DHT22;62333;51.980;5.934;2023-02-21T15:40:01;11.40;96.60
38480;DHT22;62333;51.980;5.934;2023-02-21T15:42:30;11.40;96.60
38480;DHT22;62333;51.980;5.934;2023-02-21T15:45:02;11.40;96.60
38480;DHT22;62333;51.980;5.934;2023-02-21T15:47:32;11.40;96.50
38480;DHT22;62333;51.980;5.934;2023-02-21T15:52:45;11.40;96.50
38480;DHT22;62333;51.980;5.934;2023-02-21T15:58:02;11.40;96.50
38480;DHT22;62333;51.980;5.934;2023-02-21T16:00:32;11.40;96.40
38480;DHT22;62333;51.980;5.934;2023-02-21T16:11:53;11.30;96.30
38480;DHT22;62333;51.980;5.934;2023-02-21T16:14:44;11.40;96.30
38480;DHT22;62333;51.980;5.934;2023-02-21T16:17:18;11.30;96.30
38480;DHT22;62333;51.980;5.934;2023-02-21T16:19:48;11.30;96.60
38480;DHT22;62333;51.980;5.934;2023-02-21T16:22:34;11.30;96.40
38480;DHT22;62333;51.980;5.934;2023-02-21T16:27:39;11.30;96.40
38480;DHT22;62333;51.980;5.934;2023-02-21T16:30:06;11.30;96.40
38480;DHT22;62333;51.980;5.934;2023-02-21T16:32:33;11.30;96.40
38480;DHT22;62333;51.980;5.934;2023-02-21T16:35:00;11.30;96.40
38480;DHT22;62333;51.980;5.934;2023-02-21T16:37:26;11.30;96.40
38480;DHT22;62333;51.980;5.934;2023-02-21T16:39:52;11.30;96.30
38480;DHT22;62333;51.980;5.934;2023-02-21T16:42:18;11.30;96.30
38480;DHT22;62333;51.980;5.934;2023-02-21T16:44:44;11.30;96.30
38480;DHT22;62333;51.980;5.934;2023-02-21T16:47:17;11.30;96.30
38480;DHT22;62333;51.980;5.934;2023-02-21T16:49:44;11.30;96.30
38480;DHT22;62333;51.980;5.934;2023-02-21T16:52:14;11.30;96.20
38480;DHT22;62333;51.980;5.934;2023-02-21T16:54:40;11.30;96.20
38480;DHT22;62333;51.980;5.934;2023-02-21T16:57:06;11.30;96.20
38480;DHT22;62333;51.980;5.934;2023-02-21T16:59:32;11.30;96.20
38480;DHT22;62333;51.980;5.934;2023-02-21T17:01:58;11.30;96.20
38480;DHT22;62333;51.980;5.934;2023-02-21T17:04:24;11.30;96.20
38480;DHT22;62333;51.980;5.934;2023-02-21T17:07:04;11.30;96.20
38480;DHT22;62333;51.980;5.934;2023-02-21T17:09:34;11.30;96.20
38480;DHT22;62333;51.980;5.934;2023-02-21T17:12:04;11.20;96.10
38480;DHT22;62333;51.980;5.934;2023-02-21T17:14:31;11.20;96.10
38480;DHT22;62333;51.980;5.934;2023-02-21T17:16:57;11.20;96.10
38480;DHT22;62333;51.980;5.934;2023-02-21T17:19:23;11.20;96.10
38480;DHT22;62333;51.980;5.934;2023-02-21T17:21:50;11.20;96.10
38480;DHT22;62333;51.980;5.934;2023-02-21T17:24:16;11.10;96.00
38480;DHT22;62333;51.980;5.934;2023-02-21T17:26:43;11.20;96.10
38480;DHT22;62333;51.980;5.934;2023-02-21T17:29:09;11.20;96.00
38480;DHT22;62333;51.980;5.934;2023-02-21T17:31:35;11.20;96.00
38480;DHT22;62333;51.980;5.934;2023-02-21T17:34:01;11.20;96.00
38480;DHT22;62333;51.980;5.934;2023-02-21T17:36:28;11.20;96.00
38480;DHT22;62333;51.980;5.934;2023-02-21T17:38:53;11.20;95.90
38480;DHT22;62333;51.980;5.934;2023-02-21T17:41:20;11.20;95.90
38480;DHT22;62333;51.980;5.934;2023-02-21T17:43:46;11.20;96.00
38480;DHT22;62333;51.980;5.934;2023-02-21T17:46:13;11.20;95.90
38480;DHT22;62333;51.980;5.934;2023-02-21T17:48:40;11.20;95.90
38480;DHT22;62333;51.980;5.934;2023-02-21T17:51:07;11.10;95.90
38480;DHT22;62333;51.980;5.934;2023-02-21T17:53:33;11.10;95.90
38480;DHT22;62333;51.980;5.934;2023-02-21T17:55:59;11.10;95.80
38480;DHT22;62333;51.980;5.934;2023-02-21T17:58:26;11.10;95.80
38480;DHT22;62333;51.980;5.934;2023-02-21T18:00:52;11.10;95.90
38480;DHT22;62333;51.980;5.934;2023-02-21T18:03:20;11.00;95.80
38480;DHT22;62333;51.980;5.934;2023-02-21T18:05:46;11.00;95.90
38480;DHT22;62333;51.980;5.934;2023-02-21T18:08:12;11.00;95.90
38480;DHT22;62333;51.980;5.934;2023-02-21T18:10:37;11.00;95.90
38480;DHT22;62333;51.980;5.934;2023-02-21T18:13:03;11.00;95.90
38480;DHT22;62333;51.980;5.934;2023-02-21T18:15:29;11.00;95.90
38480;DHT22;62333;51.980;5.934;2023-02-21T18:17:55;11.00;95.90
38480;DHT22;62333;51.980;5.934;2023-02-21T18:20:21;11.00;95.90
38480;DHT22;62333;51.980;5.934;2023-02-21T18:22:47;11.00;95.80
38480;DHT22;62333;51.980;5.934;2023-02-21T18:25:14;10.90;95.80
38480;DHT22;62333;51.980;5.934;2023-02-21T18:27:41;10.90;95.90
38480;DHT22;62333;51.980;5.934;2023-02-21T18:30:07;10.80;95.80
38480;DHT22;62333;51.980;5.934;2023-02-21T18:32:32;10.80;95.90
38480;DHT22;62333;51.980;5.934;2023-02-21T18:34:58;10.70;95.90
38480;DHT22;62333;51.980;5.934;2023-02-21T18:37:25;10.70;96.00
38480;DHT22;62333;51.980;5.934;2023-02-21T18:39:54;10.70;96.00
38480;DHT22;62333;51.980;5.934;2023-02-21T18:42:20;10.70;96.00
38480;DHT22;62333;51.980;5.934;2023-02-21T18:44:48;10.70;96.00
38480;DHT22;62333;51.980;5.934;2023-02-21T18:47:14;10.70;96.00
38480;DHT22;62333;51.980;5.934;2023-02-21T18:49:47;10.70;96.00
38480;DHT22;62333;51.980;5.934;2023-02-21T18:52:13;10.70;95.90
38480;DHT22;62333;51.980;5.934;2023-02-21T18:54:47;10.70;95.90
38480;DHT22;62333;51.980;5.934;2023-02-21T18:57:17;10.70;95.90
38480;DHT22;62333;51.980;5.934;2023-02-21T18:59:43;10.70;95.90
38480;DHT22;62333;51.980;5.934;2023-02-21T19:02:16;10.80;95.90
38480;DHT22;62333;51.980;5.934;2023-02-21T19:04:43;10.80;95.90
38480;DHT22;62333;51.980;5.934;2023-02-21T19:07:11;10.80;95.90
38480;DHT22;62333;51.980;5.934;2023-02-21T19:09:38;10.70;95.80
38480;DHT22;62333;51.980;5.934;2023-02-21T19:12:04;10.70;95.80
38480;DHT22;62333;51.980;5.934;2023-02-21T19:14:33;10.70;95.80
38480;DHT22;62333;51.980;5.934;2023-02-21T19:16:59;10.70;95.80